sensor_id;sensor_type;location;lat;lon;timestamp;temperature;humidity
16271;DHT22;8243;49.048;8.396;2023-08-07T00:02:01;14.20;99.90
16271;DHT22;8243;49.048;8.396;2023-08-07T00:04:28;14.10;99.90
16271;DHT22;8243;49.048;8.396;2023-08-07T00:06:54;14.20;99.90
16271;DHT22;8243;49.048;8.396;2023-08-07T00:09:19;14.10;99.90
16271;DHT22;8243;49.048;8.396;2023-08-07T00:11:45;14.20;99.90
16271;DHT22;8243;49.048;8.396;2023-08-07T00:14:10;14.10;99.90
16271;DHT22;8243;49.048;8.396;2023-08-07T00:16:36;14.10;99.90
16271;DHT22;8243;49.048;8.396;2023-08-07T00:19:02;14.10;99.90
16271;DHT22;8243;49.048;8.396;2023-08-07T00:21:28;14.10;99.90
16271;DHT22;8243;49.048;8.396;2023-08-07T00:23:53;14.20;99.90
16271;DHT22;8243;49.048;8.396;2023-08-07T00:26:20;14.20;99.90
16271;DHT22;8243;49.048;8.396;2023-08-07T00:28:46;14.10;99.90
16271;DHT22;8243;49.048;8.396;2023-08-07T00:31:12;14.10;99.90
16271;DHT22;8243;49.048;8.396;2023-08-07T00:33:38;14.10;99.90
16271;DHT22;8243;49.048;8.396;2023-08-07T00:36:03;14.10;99.90
16271;DHT22;8243;49.048;8.396;2023-08-07T00:38:29;14.10;99.90
16271;DHT22;8243;49.048;8.396;2023-08-07T00:40:55;14.10;99.90
16271;DHT22;8243;49.048;8.396;2023-08-07T00:43:20;14.10;99.90
16271;DHT22;8243;49.048;8.396;2023-08-07T00:45:46;14.00;99.90
16271;DHT22;8243;49.048;8.396;2023-08-07T00:48:13;14.00;99.90
16271;DHT22;8243;49.048;8.396;2023-08-07T00:50:41;14.00;99.90
16271;DHT22;8243;49.048;8.396;2023-08-07T00:53:08;14.00;99.90
16271;DHT22;8243;49.048;8.396;2023-08-07T00:55:34;14.00;99.90
16271;DHT22;8243;49.048;8.396;2023-08-07T00:58:00;14.00;99.90
16271;DHT22;8243;49.048;8.396;2023-08-07T01:00:28;14.00;99.90
16271;DHT22;8243;49.048;8.396;2023-08-07T01:02:55;14.00;99.90
16271;DHT22;8243;49.048;8.396;2023-08-07T01:05:24;14.00;99.90
16271;DHT22;8243;49.048;8.396;2023-08-07T01:07:53;14.00;99.90
16271;DHT22;8243;49.048;8.396;2023-08-07T01:10:25;14.00;99.90
16271;DHT22;8243;49.048;8.396;2023-08-07T01:13:22;14.00;99.90
16271;DHT22;8243;49.048;8.396;2023-08-07T01:15:52;13.90;99.90
16271;DHT22;8243;49.048;8.396;2023-08-07T01:18:22;13.90;99.90
16271;DHT22;8243;49.048;8.396;2023-08-07T01:20:47;13.90;99.90
16271;DHT22;8243;49.048;8.396;2023-08-07T01:23:13;13.80;99.90
16271;DHT22;8243;49.048;8.396;2023-08-07T01:25:38;13.80;99.60
16271;DHT22;8243;49.048;8.396;2023-08-07T01:28:18;13.90;99.40
16271;DHT22;8243;49.048;8.396;2023-08-07T01:30:49;13.90;99.00
16271;DHT22;8243;49.048;8.396;2023-08-07T01:35:51;13.90;98.70
16271;DHT22;8243;49.048;8.396;2023-08-07T01:38:17;13.90;99.10
16271;DHT22;8243;49.048;8.396;2023-08-07T01:40:46;13.90;99.30
16271;DHT22;8243;49.048;8.396;2023-08-07T01:43:12;13.90;99.20
16271;DHT22;8243;49.048;8.396;2023-08-07T01:45:38;13.90;99.90
16271;DHT22;8243;49.048;8.396;2023-08-07T01:48:03;13.80;99.90
16271;DHT22;8243;49.048;8.396;2023-08-07T01:50:30;13.80;99.90
16271;DHT22;8243;49.048;8.396;2023-08-07T01:52:56;13.70;99.90
16271;DHT22;8243;49.048;8.396;2023-08-07T01:55:22;13.60;99.90
16271;DHT22;8243;49.048;8.396;2023-08-07T01:57:48;13.60;99.90
16271;DHT22;8243;49.048;8.396;2023-08-07T02:00:14;13.50;99.90
16271;DHT22;8243;49.048;8.396;2023-08-07T02:02:39;13.50;99.90
16271;DHT22;8243;49.048;8.396;2023-08-07T02:05:05;13.40;99.90
16271;DHT22;8243;49.048;8.396;2023-08-07T02:07:31;13.30;99.90
16271;DHT22;8243;49.048;8.396;2023-08-07T02:09:57;13.30;99.90
16271;DHT22;8243;49.048;8.396;2023-08-07T02:12:23;13.30;99.90
16271;DHT22;8243;49.048;8.396;2023-08-07T02:14:50;13.30;99.90
16271;DHT22;8243;49.048;8.396;2023-08-07T02:17:15;13.30;99.90
16271;DHT22;8243;49.048;8.396;2023-08-07T02:19:41;13.30;99.90
16271;DHT22;8243;49.048;8.396;2023-08-07T02:22:06;13.30;99.90
16271;DHT22;8243;49.048;8.396;2023-08-07T02:24:32;13.30;99.90
16271;DHT22;8243;49.048;8.396;2023-08-07T02:26:58;13.20;99.90
16271;DHT22;8243;49.048;8.396;2023-08-07T02:29:23;13.20;99.90
16271;DHT22;8243;49.048;8.396;2023-08-07T02:31:49;13.20;99.90
16271;DHT22;8243;49.048;8.396;2023-08-07T02:34:14;13.10;99.90
16271;DHT22;8243;49.048;8.396;2023-08-07T02:36:40;13.10;99.90
16271;DHT22;8243;49.048;8.396;2023-08-07T02:39:06;13.00;99.90
16271;DHT22;8243;49.048;8.396;2023-08-07T02:41:32;12.90;99.90
16271;DHT22;8243;49.048;8.396;2023-08-07T02:43:57;12.90;99.90
16271;DHT22;8243;49.048;8.396;2023-08-07T02:46:23;12.80;99.90
16271;DHT22;8243;49.048;8.396;2023-08-07T02:48:48;12.80;99.90
16271;DHT22;8243;49.048;8.396;2023-08-07T02:51:14;12.70;99.90
16271;DHT22;8243;49.048;8.396;2023-08-07T02:53:39;12.70;99.90
16271;DHT22;8243;49.048;8.396;2023-08-07T02:56:05;12.70;99.90
16271;DHT22;8243;49.048;8.396;2023-08-07T02:58:31;12.70;99.90
16271;DHT22;8243;49.048;8.396;2023-08-07T03:00:56;12.60;99.90
16271;DHT22;8243;49.048;8.396;2023-08-07T03:03:22;12.60;99.90
16271;DHT22;8243;49.048;8.396;2023-08-07T03:05:51;12.60;99.90
16271;DHT22;8243;49.048;8.396;2023-08-07T03:08:17;12.60;99.90
16271;DHT22;8243;49.048;8.396;2023-08-07T03:10:51;12.60;99.90
16271;DHT22;8243;49.048;8.396;2023-08-07T03:13:17;12.60;99.90
16271;DHT22;8243;49.048;8.396;2023-08-07T03:15:43;12.60;99.90
16271;DHT22;8243;49.048;8.396;2023-08-07T03:18:08;12.60;99.90
16271;DHT22;8243;49.048;8.396;2023-08-07T03:20:36;12.50;99.90
16271;DHT22;8243;49.048;8.396;2023-08-07T03:23:02;12.50;99.90
16271;DHT22;8243;49.048;8.396;2023-08-07T03:25:27;12.50;99.90
16271;DHT22;8243;49.048;8.396;2023-08-07T03:27:53;12.50;99.90
16271;DHT22;8243;49.048;8.396;2023-08-07T03:30:19;12.60;99.90
16271;DHT22;8243;49.048;8.396;2023-08-07T03:32:44;12.60;99.90
16271;DHT22;8243;49.048;8.396;2023-08-07T03:35:10;12.60;99.90
16271;DHT22;8243;49.048;8.396;2023-08-07T03:37:35;12.70;99.90
16271;DHT22;8243;49.048;8.396;2023-08-07T03:40:01;12.60;99.90
16271;DHT22;8243;49.048;8.396;2023-08-07T03:42:26;12.70;99.90
16271;DHT22;8243;49.048;8.396;2023-08-07T03:44:52;12.70;99.90
16271;DHT22;8243;49.048;8.396;2023-08-07T03:47:17;12.80;99.90
16271;DHT22;8243;49.048;8.396;2023-08-07T03:49:43;12.80;99.90
16271;DHT22;8243;49.048;8.396;2023-08-07T03:52:08;12.70;99.90
16271;DHT22;8243;49.048;8.396;2023-08-07T03:54:34;12.80;99.90
16271;DHT22;8243;49.048;8.396;2023-08-07T03:56:59;12.80;99.90
16271;DHT22;8243;49.048;8.396;2023-08-07T03:59:25;12.80;99.90
16271;DHT22;8243;49.048;8.396;2023-08-07T04:01:50;12.80;99.90
16271;DHT22;8243;49.048;8.396;2023-08-07T04:04:16;12.80;99.90
16271;DHT22;8243;49.048;8.396;2023-08-07T04:06:42;12.80;99.90
16271;DHT22;8243;49.048;8.396;2023-08-07T04:09:09;12.80;99.90
16271;DHT22;8243;49.048;8.396;2023-08-07T04:11:36;12.80;99.90
16271;DHT22;8243;49.048;8.396;2023-08-07T04:14:02;12.80;99.90
16271;DHT22;8243;49.048;8.396;2023-08-07T04:16:28;12.80;99.90
16271;DHT22;8243;49.048;8.396;2023-08-07T04:18:53;12.80;99.90
16271;DHT22;8243;49.048;8.396;2023-08-07T04:21:19;12.80;99.90
16271;DHT22;8243;49.048;8.396;2023-08-07T04:23:44;12.90;99.90
16271;DHT22;8243;49.048;8.396;2023-08-07T04:26:10;12.90;99.90
16271;DHT22;8243;49.048;8.396;2023-08-07T04:28:35;12.90;99.90
16271;DHT22;8243;49.048;8.396;2023-08-07T04:31:01;12.90;99.90
16271;DHT22;8243;49.048;8.396;2023-08-07T04:33:27;12.90;99.90
16271;DHT22;8243;49.048;8.396;2023-08-07T04:35:53;12.90;99.90
16271;DHT22;8243;49.048;8.396;2023-08-07T04:38:19;12.80;99.90
16271;DHT22;8243;49.048;8.396;2023-08-07T04:40:49;12.90;99.90
16271;DHT22;8243;49.048;8.396;2023-08-07T04:43:16;12.90;99.90
16271;DHT22;8243;49.048;8.396;2023-08-07T04:45:43;12.90;99.90
16271;DHT22;8243;49.048;8.396;2023-08-07T04:48:10;12.90;99.90
16271;DHT22;8243;49.048;8.396;2023-08-07T04:50:37;12.90;99.90
16271;DHT22;8243;49.048;8.396;2023-08-07T04:53:03;12.90;99.90
16271;DHT22;8243;49.048;8.396;2023-08-07T04:55:29;13.00;99.90
16271;DHT22;8243;49.048;8.396;2023-08-07T04:57:55;13.00;99.90
16271;DHT22;8243;49.048;8.396;2023-08-07T05:00:22;13.10;99.90
16271;DHT22;8243;49.048;8.396;2023-08-07T05:02:47;13.00;99.90
16271;DHT22;8243;49.048;8.396;2023-08-07T05:05:14;13.10;99.90
16271;DHT22;8243;49.048;8.396;2023-08-07T05:07:40;13.10;99.90
16271;DHT22;8243;49.048;8.396;2023-08-07T05:10:06;13.20;99.90
16271;DHT22;8243;49.048;8.396;2023-08-07T05:12:35;13.30;99.90
16271;DHT22;8243;49.048;8.396;2023-08-07T05:15:00;13.30;99.90
16271;DHT22;8243;49.048;8.396;2023-08-07T05:17:26;13.30;99.90
16271;DHT22;8243;49.048;8.396;2023-08-07T05:19:51;13.30;99.90
16271;DHT22;8243;49.048;8.396;2023-08-07T05:22:17;13.40;99.90
16271;DHT22;8243;49.048;8.396;2023-08-07T05:24:43;13.40;99.90
16271;DHT22;8243;49.048;8.396;2023-08-07T05:27:10;13.50;99.90
16271;DHT22;8243;49.048;8.396;2023-08-07T05:29:36;13.50;99.90
16271;DHT22;8243;49.048;8.396;2023-08-07T05:32:11;13.50;99.90
16271;DHT22;8243;49.048;8.396;2023-08-07T05:34:37;13.50;99.90
16271;DHT22;8243;49.048;8.396;2023-08-07T05:37:04;13.60;99.90
16271;DHT22;8243;49.048;8.396;2023-08-07T05:39:29;13.60;99.90
16271;DHT22;8243;49.048;8.396;2023-08-07T05:41:55;13.60;99.90
16271;DHT22;8243;49.048;8.396;2023-08-07T05:44:25;13.70;99.90
16271;DHT22;8243;49.048;8.396;2023-08-07T05:46:51;13.80;99.90
16271;DHT22;8243;49.048;8.396;2023-08-07T05:49:17;13.80;99.90
16271;DHT22;8243;49.048;8.396;2023-08-07T05:51:42;13.80;99.90
16271;DHT22;8243;49.048;8.396;2023-08-07T05:54:08;13.90;99.90
16271;DHT22;8243;49.048;8.396;2023-08-07T05:56:34;13.90;99.90
16271;DHT22;8243;49.048;8.396;2023-08-07T05:58:59;14.00;99.90
16271;DHT22;8243;49.048;8.396;2023-08-07T06:01:25;14.00;99.90
16271;DHT22;8243;49.048;8.396;2023-08-07T06:03:59;14.10;99.90
16271;DHT22;8243;49.048;8.396;2023-08-07T06:06:25;14.20;99.90
16271;DHT22;8243;49.048;8.396;2023-08-07T06:08:51;14.20;99.90
16271;DHT22;8243;49.048;8.396;2023-08-07T06:11:17;14.30;99.90
16271;DHT22;8243;49.048;8.396;2023-08-07T06:13:43;14.50;99.90
16271;DHT22;8243;49.048;8.396;2023-08-07T06:16:08;14.50;99.90
16271;DHT22;8243;49.048;8.396;2023-08-07T06:18:34;14.60;99.90
16271;DHT22;8243;49.048;8.396;2023-08-07T06:21:00;14.60;99.90
16271;DHT22;8243;49.048;8.396;2023-08-07T06:23:25;14.70;99.90
16271;DHT22;8243;49.048;8.396;2023-08-07T06:25:51;14.70;99.90
16271;DHT22;8243;49.048;8.396;2023-08-07T06:28:16;14.80;99.90
16271;DHT22;8243;49.048;8.396;2023-08-07T06:30:42;14.90;99.30
16271;DHT22;8243;49.048;8.396;2023-08-07T06:33:07;14.90;98.00
16271;DHT22;8243;49.048;8.396;2023-08-07T06:35:42;15.10;97.40
16271;DHT22;8243;49.048;8.396;2023-08-07T06:38:10;15.20;95.70
16271;DHT22;8243;49.048;8.396;2023-08-07T06:40:36;15.30;93.30
16271;DHT22;8243;49.048;8.396;2023-08-07T06:43:02;15.50;92.10
16271;DHT22;8243;49.048;8.396;2023-08-07T06:45:28;15.50;91.70
16271;DHT22;8243;49.048;8.396;2023-08-07T06:47:53;15.40;91.10
16271;DHT22;8243;49.048;8.396;2023-08-07T06:50:19;15.40;91.20
16271;DHT22;8243;49.048;8.396;2023-08-07T06:52:44;15.50;91.10
16271;DHT22;8243;49.048;8.396;2023-08-07T06:55:10;15.40;90.80
16271;DHT22;8243;49.048;8.396;2023-08-07T06:57:36;15.40;90.80
16271;DHT22;8243;49.048;8.396;2023-08-07T07:00:02;15.50;90.80
16271;DHT22;8243;49.048;8.396;2023-08-07T07:02:27;15.70;90.60
16271;DHT22;8243;49.048;8.396;2023-08-07T07:04:53;15.80;90.20
16271;DHT22;8243;49.048;8.396;2023-08-07T07:07:18;15.80;90.00
16271;DHT22;8243;49.048;8.396;2023-08-07T07:09:44;15.90;89.40
16271;DHT22;8243;49.048;8.396;2023-08-07T07:12:09;16.00;86.30
16271;DHT22;8243;49.048;8.396;2023-08-07T07:14:35;15.80;86.30
16271;DHT22;8243;49.048;8.396;2023-08-07T07:17:00;15.80;83.90
16271;DHT22;8243;49.048;8.396;2023-08-07T07:19:26;15.90;82.70
16271;DHT22;8243;49.048;8.396;2023-08-07T07:21:52;16.00;81.50
16271;DHT22;8243;49.048;8.396;2023-08-07T07:24:18;16.00;79.70
16271;DHT22;8243;49.048;8.396;2023-08-07T07:26:44;16.10;78.70
16271;DHT22;8243;49.048;8.396;2023-08-07T07:29:09;16.10;73.40
16271;DHT22;8243;49.048;8.396;2023-08-07T07:31:35;16.10;74.40
16271;DHT22;8243;49.048;8.396;2023-08-07T07:34:01;16.10;73.40
16271;DHT22;8243;49.048;8.396;2023-08-07T07:36:26;16.00;69.70
16271;DHT22;8243;49.048;8.396;2023-08-07T07:38:52;16.00;67.30
16271;DHT22;8243;49.048;8.396;2023-08-07T07:41:18;16.00;65.80
16271;DHT22;8243;49.048;8.396;2023-08-07T07:43:44;16.00;63.20
16271;DHT22;8243;49.048;8.396;2023-08-07T07:46:09;16.00;62.60
16271;DHT22;8243;49.048;8.396;2023-08-07T07:48:35;16.00;62.60
16271;DHT22;8243;49.048;8.396;2023-08-07T07:51:02;15.90;61.70
16271;DHT22;8243;49.048;8.396;2023-08-07T07:53:28;15.90;61.70
16271;DHT22;8243;49.048;8.396;2023-08-07T07:55:53;15.80;59.60
16271;DHT22;8243;49.048;8.396;2023-08-07T07:58:20;15.60;59.50
16271;DHT22;8243;49.048;8.396;2023-08-07T08:00:46;15.70;60.00
16271;DHT22;8243;49.048;8.396;2023-08-07T08:03:11;15.70;59.40
16271;DHT22;8243;49.048;8.396;2023-08-07T08:05:38;15.80;58.40
16271;DHT22;8243;49.048;8.396;2023-08-07T08:08:03;15.80;57.60
16271;DHT22;8243;49.048;8.396;2023-08-07T08:10:29;16.00;54.90
16271;DHT22;8243;49.048;8.396;2023-08-07T08:12:55;16.00;55.80
16271;DHT22;8243;49.048;8.396;2023-08-07T08:15:21;16.30;53.90
16271;DHT22;8243;49.048;8.396;2023-08-07T08:17:47;16.50;53.10
16271;DHT22;8243;49.048;8.396;2023-08-07T08:20:12;16.60;48.00
16271;DHT22;8243;49.048;8.396;2023-08-07T08:22:43;16.90;49.00
16271;DHT22;8243;49.048;8.396;2023-08-07T08:25:09;17.20;44.40
16271;DHT22;8243;49.048;8.396;2023-08-07T08:27:39;17.60;43.40
16271;DHT22;8243;49.048;8.396;2023-08-07T08:30:06;17.70;39.40
16271;DHT22;8243;49.048;8.396;2023-08-07T08:32:32;17.80;39.40
16271;DHT22;8243;49.048;8.396;2023-08-07T08:34:58;18.00;37.50
16271;DHT22;8243;49.048;8.396;2023-08-07T08:37:24;18.30;34.90
16271;DHT22;8243;49.048;8.396;2023-08-07T08:39:49;18.40;34.00
16271;DHT22;8243;49.048;8.396;2023-08-07T08:42:15;18.40;32.30
16271;DHT22;8243;49.048;8.396;2023-08-07T08:44:48;18.70;31.50
16271;DHT22;8243;49.048;8.396;2023-08-07T08:47:17;19.80;26.90
16271;DHT22;8243;49.048;8.396;2023-08-07T08:50:01;20.50;23.30
16271;DHT22;8243;49.048;8.396;2023-08-07T08:52:28;20.60;21.80
16271;DHT22;8243;49.048;8.396;2023-08-07T08:54:54;21.00;20.40
16271;DHT22;8243;49.048;8.396;2023-08-07T08:57:21;21.30;18.50
16271;DHT22;8243;49.048;8.396;2023-08-07T08:59:48;21.30;16.50
16271;DHT22;8243;49.048;8.396;2023-08-07T09:02:13;21.00;17.90
16271;DHT22;8243;49.048;8.396;2023-08-07T09:04:39;21.20;18.20
16271;DHT22;8243;49.048;8.396;2023-08-07T09:07:07;21.40;16.80
16271;DHT22;8243;49.048;8.396;2023-08-07T09:09:33;21.30;15.60
16271;DHT22;8243;49.048;8.396;2023-08-07T09:12:01;21.30;14.80
16271;DHT22;8243;49.048;8.396;2023-08-07T09:14:30;22.10;13.50
16271;DHT22;8243;49.048;8.396;2023-08-07T09:16:59;21.60;13.20
16271;DHT22;8243;49.048;8.396;2023-08-07T09:19:26;21.70;13.10
16271;DHT22;8243;49.048;8.396;2023-08-07T09:21:52;22.00;12.60
16271;DHT22;8243;49.048;8.396;2023-08-07T09:24:17;22.70;12.20
16271;DHT22;8243;49.048;8.396;2023-08-07T09:26:45;22.90;10.70
16271;DHT22;8243;49.048;8.396;2023-08-07T09:29:10;22.90;10.90
16271;DHT22;8243;49.048;8.396;2023-08-07T09:31:36;22.00;12.10
16271;DHT22;8243;49.048;8.396;2023-08-07T09:34:03;21.80;12.10
16271;DHT22;8243;49.048;8.396;2023-08-07T09:36:31;21.20;12.30
16271;DHT22;8243;49.048;8.396;2023-08-07T09:39:00;21.20;12.00
16271;DHT22;8243;49.048;8.396;2023-08-07T09:41:28;21.10;11.10
16271;DHT22;8243;49.048;8.396;2023-08-07T09:43:54;20.80;11.50
16271;DHT22;8243;49.048;8.396;2023-08-07T09:46:19;20.80;12.30
16271;DHT22;8243;49.048;8.396;2023-08-07T09:48:45;20.90;12.40
16271;DHT22;8243;49.048;8.396;2023-08-07T09:51:11;21.00;11.90
16271;DHT22;8243;49.048;8.396;2023-08-07T09:53:36;21.40;12.20
16271;DHT22;8243;49.048;8.396;2023-08-07T09:56:02;21.60;11.40
16271;DHT22;8243;49.048;8.396;2023-08-07T09:58:29;22.20;10.30
16271;DHT22;8243;49.048;8.396;2023-08-07T10:00:54;22.60;10.20
16271;DHT22;8243;49.048;8.396;2023-08-07T10:03:25;22.90;9.10
16271;DHT22;8243;49.048;8.396;2023-08-07T10:05:52;23.10;8.90
16271;DHT22;8243;49.048;8.396;2023-08-07T10:08:18;22.70;8.50
16271;DHT22;8243;49.048;8.396;2023-08-07T10:10:44;22.50;8.70
16271;DHT22;8243;49.048;8.396;2023-08-07T10:13:13;22.50;9.90
16271;DHT22;8243;49.048;8.396;2023-08-07T10:15:39;22.90;8.60
16271;DHT22;8243;49.048;8.396;2023-08-07T10:18:06;22.90;9.10
16271;DHT22;8243;49.048;8.396;2023-08-07T10:20:32;22.50;8.30
16271;DHT22;8243;49.048;8.396;2023-08-07T10:23:04;22.70;9.00
16271;DHT22;8243;49.048;8.396;2023-08-07T10:25:32;22.90;7.70
16271;DHT22;8243;49.048;8.396;2023-08-07T10:28:00;23.10;7.60
16271;DHT22;8243;49.048;8.396;2023-08-07T10:30:27;22.40;7.00
16271;DHT22;8243;49.048;8.396;2023-08-07T10:32:54;22.10;8.30
16271;DHT22;8243;49.048;8.396;2023-08-07T10:35:33;21.70;8.50
16271;DHT22;8243;49.048;8.396;2023-08-07T10:38:08;21.00;7.80
16271;DHT22;8243;49.048;8.396;2023-08-07T10:40:57;20.60;10.30
16271;DHT22;8243;49.048;8.396;2023-08-07T10:43:23;20.60;10.70
16271;DHT22;8243;49.048;8.396;2023-08-07T10:45:49;20.20;10.40
16271;DHT22;8243;49.048;8.396;2023-08-07T10:48:18;19.90;10.60
16271;DHT22;8243;49.048;8.396;2023-08-07T10:56:05;19.50;12.20
16271;DHT22;8243;49.048;8.396;2023-08-07T10:58:38;19.50;13.50
16271;DHT22;8243;49.048;8.396;2023-08-07T11:04:00;19.20;14.10
16271;DHT22;8243;49.048;8.396;2023-08-07T11:06:35;18.90;14.60
16271;DHT22;8243;49.048;8.396;2023-08-07T11:09:02;18.90;14.80
16271;DHT22;8243;49.048;8.396;2023-08-07T11:11:49;18.90;15.20
16271;DHT22;8243;49.048;8.396;2023-08-07T11:14:19;18.90;15.70
16271;DHT22;8243;49.048;8.396;2023-08-07T11:16:46;18.90;15.10
16271;DHT22;8243;49.048;8.396;2023-08-07T11:19:14;18.70;14.60
16271;DHT22;8243;49.048;8.396;2023-08-07T11:21:41;18.70;15.00
16271;DHT22;8243;49.048;8.396;2023-08-07T11:24:07;18.60;13.80
16271;DHT22;8243;49.048;8.396;2023-08-07T11:26:33;18.70;13.90
16271;DHT22;8243;49.048;8.396;2023-08-07T11:28:58;18.60;14.00
16271;DHT22;8243;49.048;8.396;2023-08-07T11:31:25;18.60;14.20
16271;DHT22;8243;49.048;8.396;2023-08-07T11:33:54;18.60;14.10
16271;DHT22;8243;49.048;8.396;2023-08-07T11:36:20;18.60;14.10
16271;DHT22;8243;49.048;8.396;2023-08-07T11:38:46;18.70;14.00
16271;DHT22;8243;49.048;8.396;2023-08-07T11:41:15;19.00;14.10
16271;DHT22;8243;49.048;8.396;2023-08-07T11:43:42;19.00;14.00
16271;DHT22;8243;49.048;8.396;2023-08-07T11:46:10;19.10;13.90
16271;DHT22;8243;49.048;8.396;2023-08-07T11:48:38;19.10;13.50
16271;DHT22;8243;49.048;8.396;2023-08-07T11:51:05;19.10;14.20
16271;DHT22;8243;49.048;8.396;2023-08-07T11:53:34;19.30;13.90
16271;DHT22;8243;49.048;8.396;2023-08-07T11:56:04;19.30;13.50
16271;DHT22;8243;49.048;8.396;2023-08-07T11:58:41;19.60;13.00
16271;DHT22;8243;49.048;8.396;2023-08-07T12:01:10;19.60;13.50
16271;DHT22;8243;49.048;8.396;2023-08-07T12:03:37;19.80;12.80
16271;DHT22;8243;49.048;8.396;2023-08-07T12:06:07;20.00;12.10
16271;DHT22;8243;49.048;8.396;2023-08-07T12:08:37;20.50;11.30
16271;DHT22;8243;49.048;8.396;2023-08-07T12:11:07;20.90;10.90
16271;DHT22;8243;49.048;8.396;2023-08-07T12:13:37;21.10;9.70
16271;DHT22;8243;49.048;8.396;2023-08-07T12:16:03;21.30;9.30
16271;DHT22;8243;49.048;8.396;2023-08-07T12:18:30;21.40;9.00
16271;DHT22;8243;49.048;8.396;2023-08-07T12:21:03;21.40;9.60
16271;DHT22;8243;49.048;8.396;2023-08-07T12:23:31;21.50;8.50
16271;DHT22;8243;49.048;8.396;2023-08-07T12:25:58;21.60;9.10
16271;DHT22;8243;49.048;8.396;2023-08-07T12:28:24;21.70;8.70
16271;DHT22;8243;49.048;8.396;2023-08-07T12:30:50;21.70;8.80
16271;DHT22;8243;49.048;8.396;2023-08-07T12:33:16;21.60;8.00
16271;DHT22;8243;49.048;8.396;2023-08-07T12:35:42;21.20;8.60
16271;DHT22;8243;49.048;8.396;2023-08-07T12:38:08;21.40;9.20
16271;DHT22;8243;49.048;8.396;2023-08-07T12:40:34;21.60;9.00
16271;DHT22;8243;49.048;8.396;2023-08-07T12:43:04;21.60;7.70
16271;DHT22;8243;49.048;8.396;2023-08-07T12:45:30;21.70;8.50
16271;DHT22;8243;49.048;8.396;2023-08-07T12:47:55;21.70;8.30
16271;DHT22;8243;49.048;8.396;2023-08-07T12:50:21;21.70;8.00
16271;DHT22;8243;49.048;8.396;2023-08-07T12:52:47;21.70;8.00
16271;DHT22;8243;49.048;8.396;2023-08-07T12:55:12;21.50;8.00
16271;DHT22;8243;49.048;8.396;2023-08-07T12:57:42;21.70;7.60
16271;DHT22;8243;49.048;8.396;2023-08-07T13:00:12;21.90;8.30
16271;DHT22;8243;49.048;8.396;2023-08-07T13:02:41;21.90;8.10
16271;DHT22;8243;49.048;8.396;2023-08-07T13:05:07;22.00;7.70
16271;DHT22;8243;49.048;8.396;2023-08-07T13:07:34;22.10;7.20
16271;DHT22;8243;49.048;8.396;2023-08-07T13:10:00;21.70;6.60
16271;DHT22;8243;49.048;8.396;2023-08-07T13:12:25;21.20;7.20
16271;DHT22;8243;49.048;8.396;2023-08-07T13:14:51;20.80;7.90
16271;DHT22;8243;49.048;8.396;2023-08-07T13:17:16;20.70;7.90
16271;DHT22;8243;49.048;8.396;2023-08-07T13:19:42;20.60;8.20
16271;DHT22;8243;49.048;8.396;2023-08-07T13:22:08;20.80;8.50
16271;DHT22;8243;49.048;8.396;2023-08-07T13:24:33;20.90;9.20
16271;DHT22;8243;49.048;8.396;2023-08-07T13:26:59;20.80;9.20
16271;DHT22;8243;49.048;8.396;2023-08-07T13:29:24;21.40;8.70
16271;DHT22;8243;49.048;8.396;2023-08-07T13:31:51;21.90;8.20
16271;DHT22;8243;49.048;8.396;2023-08-07T13:34:17;22.20;7.40
16271;DHT22;8243;49.048;8.396;2023-08-07T13:36:42;22.40;7.70
16271;DHT22;8243;49.048;8.396;2023-08-07T13:39:08;22.50;6.90
16271;DHT22;8243;49.048;8.396;2023-08-07T13:41:34;22.40;6.50
16271;DHT22;8243;49.048;8.396;2023-08-07T13:44:00;21.70;5.80
16271;DHT22;8243;49.048;8.396;2023-08-07T13:46:26;21.40;6.90
16271;DHT22;8243;49.048;8.396;2023-08-07T13:48:52;21.30;8.10
16271;DHT22;8243;49.048;8.396;2023-08-07T13:51:19;21.20;7.90
16271;DHT22;8243;49.048;8.396;2023-08-07T13:53:44;21.00;8.40
16271;DHT22;8243;49.048;8.396;2023-08-07T13:56:10;20.90;9.80
16271;DHT22;8243;49.048;8.396;2023-08-07T13:58:38;20.90;10.70
16271;DHT22;8243;49.048;8.396;2023-08-07T14:01:04;20.80;10.80
16271;DHT22;8243;49.048;8.396;2023-08-07T14:03:30;20.90;10.90
16271;DHT22;8243;49.048;8.396;2023-08-07T14:05:56;21.30;11.20
16271;DHT22;8243;49.048;8.396;2023-08-07T14:08:22;21.50;10.30
16271;DHT22;8243;49.048;8.396;2023-08-07T14:10:47;21.60;10.40
16271;DHT22;8243;49.048;8.396;2023-08-07T14:13:13;21.80;11.00
16271;DHT22;8243;49.048;8.396;2023-08-07T14:15:39;21.90;10.90
16271;DHT22;8243;49.048;8.396;2023-08-07T14:18:05;21.80;11.60
16271;DHT22;8243;49.048;8.396;2023-08-07T14:20:31;21.60;11.00
16271;DHT22;8243;49.048;8.396;2023-08-07T14:22:57;21.50;10.70
16271;DHT22;8243;49.048;8.396;2023-08-07T14:25:23;21.30;10.60
16271;DHT22;8243;49.048;8.396;2023-08-07T14:27:49;21.20;11.10
16271;DHT22;8243;49.048;8.396;2023-08-07T14:30:14;21.10;11.10
16271;DHT22;8243;49.048;8.396;2023-08-07T14:32:41;21.30;11.20
16271;DHT22;8243;49.048;8.396;2023-08-07T14:35:08;21.60;11.60
16271;DHT22;8243;49.048;8.396;2023-08-07T14:37:34;21.60;10.60
16271;DHT22;8243;49.048;8.396;2023-08-07T14:40:01;21.60;11.40
16271;DHT22;8243;49.048;8.396;2023-08-07T14:42:27;21.30;11.60
16271;DHT22;8243;49.048;8.396;2023-08-07T14:44:53;21.20;12.00
16271;DHT22;8243;49.048;8.396;2023-08-07T14:47:18;21.40;12.20
16271;DHT22;8243;49.048;8.396;2023-08-07T14:49:44;21.80;12.40
16271;DHT22;8243;49.048;8.396;2023-08-07T14:52:09;22.00;11.70
16271;DHT22;8243;49.048;8.396;2023-08-07T14:54:35;22.10;11.80
16271;DHT22;8243;49.048;8.396;2023-08-07T14:57:00;22.10;10.70
16271;DHT22;8243;49.048;8.396;2023-08-07T14:59:26;22.00;11.20
16271;DHT22;8243;49.048;8.396;2023-08-07T15:01:52;21.80;11.20
16271;DHT22;8243;49.048;8.396;2023-08-07T15:04:24;21.70;10.60
16271;DHT22;8243;49.048;8.396;2023-08-07T15:06:58;21.50;11.30
16271;DHT22;8243;49.048;8.396;2023-08-07T15:09:24;21.40;11.30
16271;DHT22;8243;49.048;8.396;2023-08-07T15:11:50;21.50;12.00
16271;DHT22;8243;49.048;8.396;2023-08-07T15:14:16;21.80;12.40
16271;DHT22;8243;49.048;8.396;2023-08-07T15:16:42;21.90;11.60
16271;DHT22;8243;49.048;8.396;2023-08-07T15:19:07;22.20;11.80
16271;DHT22;8243;49.048;8.396;2023-08-07T15:21:33;22.10;12.00
16271;DHT22;8243;49.048;8.396;2023-08-07T15:23:58;22.00;10.10
16271;DHT22;8243;49.048;8.396;2023-08-07T15:26:24;21.80;9.90
16271;DHT22;8243;49.048;8.396;2023-08-07T15:28:50;21.70;9.80
16271;DHT22;8243;49.048;8.396;2023-08-07T15:31:15;21.50;10.40
16271;DHT22;8243;49.048;8.396;2023-08-07T15:33:41;21.30;11.20
16271;DHT22;8243;49.048;8.396;2023-08-07T15:36:07;21.20;11.10
16271;DHT22;8243;49.048;8.396;2023-08-07T15:38:38;21.30;11.20
16271;DHT22;8243;49.048;8.396;2023-08-07T15:41:04;21.20;11.40
16271;DHT22;8243;49.048;8.396;2023-08-07T15:43:30;21.10;11.30
16271;DHT22;8243;49.048;8.396;2023-08-07T15:45:55;21.10;11.80
16271;DHT22;8243;49.048;8.396;2023-08-07T15:48:21;21.40;11.60
16271;DHT22;8243;49.048;8.396;2023-08-07T15:50:47;21.60;11.50
16271;DHT22;8243;49.048;8.396;2023-08-07T15:53:13;21.80;10.80
16271;DHT22;8243;49.048;8.396;2023-08-07T15:55:38;21.70;9.80